sensor_id;sensor_type;location;lat;lon;timestamp;P1;durP1;ratioP1;P2;durP2;ratioP2
1328;SDS011;658;48.820;9.354;2023-02-28T00:03:01;0.70;;;0.60;;
1328;SDS011;658;48.820;9.354;2023-02-28T00:07:02;0.93;;;0.93;;
1328;SDS011;658;48.820;9.354;2023-02-28T00:11:03;1.07;;;0.90;;
1328;SDS011;658;48.820;9.354;2023-02-28T00:15:07;0.70;;;0.70;;
1328;SDS011;658;48.820;9.354;2023-02-28T00:19:10;0.77;;;0.77;;
1328;SDS011;658;48.820;9.354;2023-02-28T00:23:13;0.80;;;0.80;;
1328;SDS011;658;48.820;9.354;2023-02-28T00:27:14;1.00;;;0.93;;
1328;SDS011;658;48.820;9.354;2023-02-28T00:31:15;0.80;;;0.80;;
1328;SDS011;658;48.820;9.354;2023-02-28T00:35:15;1.03;;;0.83;;
1328;SDS011;658;48.820;9.354;2023-02-28T00:39:16;0.90;;;0.80;;
1328;SDS011;658;48.820;9.354;2023-02-28T00:43:17;0.80;;;0.80;;
1328;SDS011;658;48.820;9.354;2023-02-28T00:47:17;0.80;;;0.80;;
1328;SDS011;658;48.820;9.354;2023-02-28T00:51:18;1.67;;;0.73;;
1328;SDS011;658;48.820;9.354;2023-02-28T00:55:19;1.77;;;1.10;;
1328;SDS011;658;48.820;9.354;2023-02-28T00:59:19;0.83;;;0.83;;
1328;SDS011;658;48.820;9.354;2023-02-28T01:03:20;1.00;;;0.90;;
1328;SDS011;658;48.820;9.354;2023-02-28T01:07:22;1.00;;;0.90;;
1328;SDS011;658;48.820;9.354;2023-02-28T01:11:23;0.80;;;0.80;;
1328;SDS011;658;48.820;9.354;2023-02-28T01:15:23;1.10;;;0.90;;
1328;SDS011;658;48.820;9.354;2023-02-28T01:19:24;1.00;;;0.90;;
1328;SDS011;658;48.820;9.354;2023-02-28T01:23:25;1.20;;;1.10;;
1328;SDS011;658;48.820;9.354;2023-02-28T01:27:25;1.07;;;0.77;;
1328;SDS011;658;48.820;9.354;2023-02-28T01:31:26;1.10;;;1.00;;
1328;SDS011;658;48.820;9.354;2023-02-28T01:35:27;1.00;;;0.90;;
1328;SDS011;658;48.820;9.354;2023-02-28T01:39:28;0.90;;;0.90;;
1328;SDS011;658;48.820;9.354;2023-02-28T01:47:50;0.80;;;0.80;;
1328;SDS011;658;48.820;9.354;2023-02-28T01:51:54;0.80;;;0.80;;
1328;SDS011;658;48.820;9.354;2023-02-28T01:55:56;1.20;;;1.00;;
1328;SDS011;658;48.820;9.354;2023-02-28T01:59:57;1.10;;;1.10;;
1328;SDS011;658;48.820;9.354;2023-02-28T02:04:02;1.03;;;0.93;;
1328;SDS011;658;48.820;9.354;2023-02-28T02:08:04;0.90;;;0.90;;
1328;SDS011;658;48.820;9.354;2023-02-28T02:12:59;0.87;;;0.87;;
1328;SDS011;658;48.820;9.354;2023-02-28T02:17:04;1.10;;;1.00;;
1328;SDS011;658;48.820;9.354;2023-02-28T02:25:56;1.13;;;1.03;;
1328;SDS011;658;48.820;9.354;2023-02-28T02:38:27;0.97;;;0.97;;
1328;SDS011;658;48.820;9.354;2023-02-28T02:42:40;1.10;;;1.10;;
1328;SDS011;658;48.820;9.354;2023-02-28T02:47:05;1.17;;;1.07;;
1328;SDS011;658;48.820;9.354;2023-02-28T02:51:16;1.10;;;1.10;;
1328;SDS011;658;48.820;9.354;2023-02-28T02:55:19;0.90;;;0.90;;
1328;SDS011;658;48.820;9.354;2023-02-28T02:59:22;1.10;;;1.03;;
1328;SDS011;658;48.820;9.354;2023-02-28T03:03:23;0.70;;;0.70;;
1328;SDS011;658;48.820;9.354;2023-02-28T03:07:31;1.40;;;0.93;;
1328;SDS011;658;48.820;9.354;2023-02-28T03:11:31;1.07;;;0.97;;
1328;SDS011;658;48.820;9.354;2023-02-28T03:15:38;0.73;;;0.73;;
1328;SDS011;658;48.820;9.354;2023-02-28T03:20:01;1.20;;;1.10;;
1328;SDS011;658;48.820;9.354;2023-02-28T03:24:08;0.90;;;0.90;;
1328;SDS011;658;48.820;9.354;2023-02-28T03:33:19;1.27;;;1.10;;
1328;SDS011;658;48.820;9.354;2023-02-28T03:37:23;1.10;;;1.00;;
1328;SDS011;658;48.820;9.354;2023-02-28T03:41:28;1.03;;;0.97;;
1328;SDS011;658;48.820;9.354;2023-02-28T03:45:33;0.93;;;0.93;;
1328;SDS011;658;48.820;9.354;2023-02-28T03:49:42;1.00;;;0.97;;
1328;SDS011;658;48.820;9.354;2023-02-28T03:53:50;1.30;;;1.20;;
1328;SDS011;658;48.820;9.354;2023-02-28T04:02:32;1.37;;;1.10;;
1328;SDS011;658;48.820;9.354;2023-02-28T04:06:34;1.03;;;1.00;;
1328;SDS011;658;48.820;9.354;2023-02-28T04:10:34;0.80;;;0.80;;
1328;SDS011;658;48.820;9.354;2023-02-28T04:14:35;1.27;;;1.17;;
1328;SDS011;658;48.820;9.354;2023-02-28T04:18:35;1.03;;;1.00;;
1328;SDS011;658;48.820;9.354;2023-02-28T04:22:36;1.40;;;1.17;;
1328;SDS011;658;48.820;9.354;2023-02-28T04:26:37;0.90;;;0.90;;
1328;SDS011;658;48.820;9.354;2023-02-28T04:30:37;1.00;;;1.00;;
1328;SDS011;658;48.820;9.354;2023-02-28T04:34:39;1.27;;;1.17;;
1328;SDS011;658;48.820;9.354;2023-02-28T04:38:39;0.83;;;0.80;;
1328;SDS011;658;48.820;9.354;2023-02-28T04:42:40;0.87;;;0.87;;
1328;SDS011;658;48.820;9.354;2023-02-28T04:46:41;1.13;;;1.10;;
1328;SDS011;658;48.820;9.354;2023-02-28T04:50:42;1.13;;;1.03;;
1328;SDS011;658;48.820;9.354;2023-02-28T04:54:43;1.20;;;1.10;;
1328;SDS011;658;48.820;9.354;2023-02-28T04:58:45;1.07;;;1.00;;
1328;SDS011;658;48.820;9.354;2023-02-28T05:02:46;0.93;;;0.93;;
1328;SDS011;658;48.820;9.354;2023-02-28T05:06:46;1.00;;;1.00;;
1328;SDS011;658;48.820;9.354;2023-02-28T05:10:47;1.23;;;1.13;;
1328;SDS011;658;48.820;9.354;2023-02-28T05:14:48;1.00;;;1.00;;
1328;SDS011;658;48.820;9.354;2023-02-28T05:18:48;1.10;;;1.10;;
1328;SDS011;658;48.820;9.354;2023-02-28T05:22:49;1.00;;;1.00;;
1328;SDS011;658;48.820;9.354;2023-02-28T05:26:50;1.13;;;1.00;;
1328;SDS011;658;48.820;9.354;2023-02-28T05:30:52;1.57;;;1.30;;
1328;SDS011;658;48.820;9.354;2023-02-28T05:34:53;1.27;;;1.17;;
1328;SDS011;658;48.820;9.354;2023-02-28T05:38:53;2.03;;;1.20;;
1328;SDS011;658;48.820;9.354;2023-02-28T05:42:54;2.17;;;1.40;;
1328;SDS011;658;48.820;9.354;2023-02-28T05:46:55;1.03;;;0.97;;
1328;SDS011;658;48.820;9.354;2023-02-28T05:50:56;1.50;;;1.00;;
1328;SDS011;658;48.820;9.354;2023-02-28T05:54:58;1.47;;;1.37;;
1328;SDS011;658;48.820;9.354;2023-02-28T05:58:58;3.57;;;1.17;;
1328;SDS011;658;48.820;9.354;2023-02-28T06:02:59;1.60;;;1.50;;
1328;SDS011;658;48.820;9.354;2023-02-28T06:07:01;2.13;;;1.17;;
1328;SDS011;658;48.820;9.354;2023-02-28T06:11:03;1.50;;;1.30;;
1328;SDS011;658;48.820;9.354;2023-02-28T06:15:05;2.40;;;1.60;;
1328;SDS011;658;48.820;9.354;2023-02-28T06:19:06;1.13;;;1.10;;
1328;SDS011;658;48.820;9.354;2023-02-28T06:23:08;1.40;;;1.30;;
1328;SDS011;658;48.820;9.354;2023-02-28T06:27:09;1.07;;;1.07;;
1328;SDS011;658;48.820;9.354;2023-02-28T06:31:10;2.37;;;1.30;;
1328;SDS011;658;48.820;9.354;2023-02-28T06:35:12;1.20;;;1.10;;
1328;SDS011;658;48.820;9.354;2023-02-28T06:39:13;1.80;;;1.30;;
1328;SDS011;658;48.820;9.354;2023-02-28T06:43:14;1.80;;;1.20;;
1328;SDS011;658;48.820;9.354;2023-02-28T06:47:14;2.23;;;1.20;;
1328;SDS011;658;48.820;9.354;2023-02-28T06:51:16;1.70;;;1.43;;
1328;SDS011;658;48.820;9.354;2023-02-28T06:55:20;1.30;;;1.17;;
1328;SDS011;658;48.820;9.354;2023-02-28T06:59:20;1.43;;;1.30;;
1328;SDS011;658;48.820;9.354;2023-02-28T07:03:21;2.30;;;1.30;;
1328;SDS011;658;48.820;9.354;2023-02-28T07:07:22;2.00;;;1.40;;
1328;SDS011;658;48.820;9.354;2023-02-28T07:11:24;3.40;;;1.60;;
1328;SDS011;658;48.820;9.354;2023-02-28T07:15:26;3.00;;;1.33;;
1328;SDS011;658;48.820;9.354;2023-02-28T07:19:27;1.87;;;1.10;;
1328;SDS011;658;48.820;9.354;2023-02-28T07:23:28;2.00;;;1.20;;
1328;SDS011;658;48.820;9.354;2023-02-28T07:27:28;1.20;;;1.10;;
1328;SDS011;658;48.820;9.354;2023-02-28T07:31:29;1.83;;;1.60;;
1328;SDS011;658;48.820;9.354;2023-02-28T07:35:29;1.53;;;1.20;;
1328;SDS011;658;48.820;9.354;2023-02-28T07:39:30;1.57;;;1.43;;
1328;SDS011;658;48.820;9.354;2023-02-28T07:43:31;1.17;;;1.07;;
1328;SDS011;658;48.820;9.354;2023-02-28T07:47:32;1.70;;;1.40;;
1328;SDS011;658;48.820;9.354;2023-02-28T07:51:33;1.40;;;1.30;;
1328;SDS011;658;48.820;9.354;2023-02-28T07:55:33;1.50;;;0.93;;
1328;SDS011;658;48.820;9.354;2023-02-28T07:59:34;2.10;;;1.40;;
1328;SDS011;658;48.820;9.354;2023-02-28T08:03:35;1.93;;;1.00;;
1328;SDS011;658;48.820;9.354;2023-02-28T08:07:37;1.93;;;1.60;;
1328;SDS011;658;48.820;9.354;2023-02-28T08:11:37;2.20;;;1.43;;
1328;SDS011;658;48.820;9.354;2023-02-28T08:15:40;1.47;;;1.37;;
1328;SDS011;658;48.820;9.354;2023-02-28T08:19:42;1.73;;;1.10;;
1328;SDS011;658;48.820;9.354;2023-02-28T08:23:46;1.77;;;1.20;;
1328;SDS011;658;48.820;9.354;2023-02-28T08:27:50;1.90;;;1.30;;
1328;SDS011;658;48.820;9.354;2023-02-28T08:31:51;1.73;;;1.20;;
1328;SDS011;658;48.820;9.354;2023-02-28T08:35:55;2.20;;;1.23;;
1328;SDS011;658;48.820;9.354;2023-02-28T08:39:56;2.40;;;1.23;;
1328;SDS011;658;48.820;9.354;2023-02-28T08:43:57;1.53;;;1.43;;
1328;SDS011;658;48.820;9.354;2023-02-28T08:47:57;3.00;;;1.40;;
1328;SDS011;658;48.820;9.354;2023-02-28T08:51:58;1.63;;;1.10;;
1328;SDS011;658;48.820;9.354;2023-02-28T08:56:06;1.90;;;1.40;;
1328;SDS011;658;48.820;9.354;2023-02-28T09:00:08;1.93;;;1.20;;
1328;SDS011;658;48.820;9.354;2023-02-28T09:04:10;2.83;;;1.17;;
1328;SDS011;658;48.820;9.354;2023-02-28T09:08:11;1.27;;;1.17;;
1328;SDS011;658;48.820;9.354;2023-02-28T09:12:12;1.40;;;1.30;;
1328;SDS011;658;48.820;9.354;2023-02-28T09:16:13;1.60;;;1.50;;
1328;SDS011;658;48.820;9.354;2023-02-28T09:20:16;1.33;;;1.20;;
1328;SDS011;658;48.820;9.354;2023-02-28T09:24:16;1.53;;;1.43;;
1328;SDS011;658;48.820;9.354;2023-02-28T09:28:18;2.40;;;1.77;;
1328;SDS011;658;48.820;9.354;2023-02-28T09:32:19;1.50;;;1.40;;
1328;SDS011;658;48.820;9.354;2023-02-28T09:36:20;1.10;;;1.00;;
1328;SDS011;658;48.820;9.354;2023-02-28T09:40:22;1.60;;;1.50;;
1328;SDS011;658;48.820;9.354;2023-02-28T09:44:30;1.63;;;1.00;;
1328;SDS011;658;48.820;9.354;2023-02-28T09:48:35;2.73;;;1.30;;
1328;SDS011;658;48.820;9.354;2023-02-28T09:52:42;1.60;;;1.40;;
1328;SDS011;658;48.820;9.354;2023-02-28T09:56:53;1.50;;;1.40;;
1328;SDS011;658;48.820;9.354;2023-02-28T10:01:01;1.50;;;1.40;;
1328;SDS011;658;48.820;9.354;2023-02-28T10:05:13;3.10;;;1.40;;
1328;SDS011;658;48.820;9.354;2023-02-28T10:09:24;1.00;;;1.00;;
1328;SDS011;658;48.820;9.354;2023-02-28T10:17:58;1.47;;;1.37;;
1328;SDS011;658;48.820;9.354;2023-02-28T10:22:26;1.80;;;1.40;;
1328;SDS011;658;48.820;9.354;2023-02-28T10:26:34;1.40;;;1.17;;
1328;SDS011;658;48.820;9.354;2023-02-28T10:30:37;2.23;;;2.07;;
1328;SDS011;658;48.820;9.354;2023-02-28T10:34:40;1.60;;;1.50;;
1328;SDS011;658;48.820;9.354;2023-02-28T10:38:40;1.43;;;1.33;;
1328;SDS011;658;48.820;9.354;2023-02-28T10:43:00;1.47;;;1.37;;
1328;SDS011;658;48.820;9.354;2023-02-28T10:47:03;1.63;;;1.53;;
1328;SDS011;658;48.820;9.354;2023-02-28T10:51:08;1.40;;;1.20;;
1328;SDS011;658;48.820;9.354;2023-02-28T10:55:29;1.43;;;1.30;;
1328;SDS011;658;48.820;9.354;2023-02-28T10:59:30;1.57;;;1.47;;
1328;SDS011;658;48.820;9.354;2023-02-28T11:03:32;1.97;;;1.30;;
1328;SDS011;658;48.820;9.354;2023-02-28T11:07:34;1.67;;;1.57;;
1328;SDS011;658;48.820;9.354;2023-02-28T11:11:45;1.33;;;1.20;;
1328;SDS011;658;48.820;9.354;2023-02-28T11:15:54;1.60;;;1.50;;
1328;SDS011;658;48.820;9.354;2023-02-28T11:19:58;1.40;;;1.30;;
1328;SDS011;658;48.820;9.354;2023-02-28T11:24:22;2.80;;;1.50;;
1328;SDS011;658;48.820;9.354;2023-02-28T11:28:40;1.93;;;1.80;;
1328;SDS011;658;48.820;9.354;2023-02-28T11:32:47;1.40;;;1.30;;
1328;SDS011;658;48.820;9.354;2023-02-28T11:36:49;2.07;;;1.70;;
1328;SDS011;658;48.820;9.354;2023-02-28T12:06:45;2.07;;;1.97;;
1328;SDS011;658;48.820;9.354;2023-02-28T12:15:17;1.80;;;1.70;;
1328;SDS011;658;48.820;9.354;2023-02-28T12:28:02;2.30;;;2.10;;
1328;SDS011;658;48.820;9.354;2023-02-28T12:32:13;2.03;;;1.93;;
1328;SDS011;658;48.820;9.354;2023-02-28T12:36:18;4.67;;;2.07;;
1328;SDS011;658;48.820;9.354;2023-02-28T12:40:22;1.83;;;1.73;;
1328;SDS011;658;48.820;9.354;2023-02-28T12:44:28;2.20;;;2.10;;
1328;SDS011;658;48.820;9.354;2023-02-28T12:48:39;4.03;;;2.00;;
1328;SDS011;658;48.820;9.354;2023-02-28T12:53:03;2.13;;;1.83;;
1328;SDS011;658;48.820;9.354;2023-02-28T12:57:14;2.60;;;2.40;;
1328;SDS011;658;48.820;9.354;2023-02-28T13:01:48;2.60;;;2.40;;
1328;SDS011;658;48.820;9.354;2023-02-28T13:10:45;2.87;;;2.57;;
1328;SDS011;658;48.820;9.354;2023-02-28T13:14:47;2.33;;;2.20;;
1328;SDS011;658;48.820;9.354;2023-02-28T13:18:50;4.40;;;2.27;;
1328;SDS011;658;48.820;9.354;2023-02-28T13:22:53;2.40;;;2.27;;
1328;SDS011;658;48.820;9.354;2023-02-28T13:27:10;3.00;;;2.30;;
1328;SDS011;658;48.820;9.354;2023-02-28T13:31:24;2.33;;;2.23;;
1328;SDS011;658;48.820;9.354;2023-02-28T13:35:35;2.43;;;2.23;;
1328;SDS011;658;48.820;9.354;2023-02-28T13:48:18;2.40;;;2.20;;
1328;SDS011;658;48.820;9.354;2023-02-28T13:52:23;2.30;;;2.13;;
1328;SDS011;658;48.820;9.354;2023-02-28T13:56:33;2.30;;;2.10;;
1328;SDS011;658;48.820;9.354;2023-02-28T14:05:17;2.57;;;2.37;;
1328;SDS011;658;48.820;9.354;2023-02-28T14:09:27;2.80;;;2.60;;
1328;SDS011;658;48.820;9.354;2023-02-28T14:13:43;2.37;;;1.93;;
1328;SDS011;658;48.820;9.354;2023-02-28T14:17:46;2.00;;;1.90;;
1328;SDS011;658;48.820;9.354;2023-02-28T14:31:09;2.30;;;2.17;;
1328;SDS011;658;48.820;9.354;2023-02-28T14:39:46;2.10;;;2.00;;
1328;SDS011;658;48.820;9.354;2023-02-28T14:43:51;2.33;;;2.13;;
1328;SDS011;658;48.820;9.354;2023-02-28T14:47:54;2.17;;;2.00;;
1328;SDS011;658;48.820;9.354;2023-02-28T14:52:03;2.13;;;2.00;;
1328;SDS011;658;48.820;9.354;2023-02-28T14:56:22;2.30;;;2.20;;
1328;SDS011;658;48.820;9.354;2023-02-28T15:00:49;2.30;;;2.10;;
1328;SDS011;658;48.820;9.354;2023-02-28T15:04:57;2.67;;;2.47;;
1328;SDS011;658;48.820;9.354;2023-02-28T15:09:09;2.70;;;2.50;;
1328;SDS011;658;48.820;9.354;2023-02-28T15:13:21;2.03;;;1.77;;
1328;SDS011;658;48.820;9.354;2023-02-28T15:17:23;2.40;;;2.30;;
1328;SDS011;658;48.820;9.354;2023-02-28T15:21:35;2.17;;;2.03;;
1328;SDS011;658;48.820;9.354;2023-02-28T15:25:39;2.30;;;2.20;;
1328;SDS011;658;48.820;9.354;2023-02-28T15:29:48;2.23;;;2.07;;
1328;SDS011;658;48.820;9.354;2023-02-28T15:33:58;2.33;;;2.13;;
1328;SDS011;658;48.820;9.354;2023-02-28T15:38:13;2.00;;;1.90;;
1328;SDS011;658;48.820;9.354;2023-02-28T15:42:21;2.80;;;2.60;;
1328;SDS011;658;48.820;9.354;2023-02-28T15:46:23;6.60;;;6.00;;
1328;SDS011;658;48.820;9.354;2023-02-28T15:50:24;6.50;;;5.93;;
1328;SDS011;658;48.820;9.354;2023-02-28T15:54:28;7.20;;;6.60;;
1328;SDS011;658;48.820;9.354;2023-02-28T15:58:33;8.57;;;7.10;;
1328;SDS011;658;48.820;9.354;2023-02-28T16:02:37;7.83;;;7.13;;
1328;SDS011;658;48.820;9.354;2023-02-28T16:06:39;7.67;;;7.07;;
1328;SDS011;658;48.820;9.354;2023-02-28T16:10:44;6.07;;;5.50;;
1328;SDS011;658;48.820;9.354;2023-02-28T16:14:45;6.10;;;5.60;;
1328;SDS011;658;48.820;9.354;2023-02-28T16:18:52;4.73;;;4.40;;
1328;SDS011;658;48.820;9.354;2023-02-28T16:22:53;4.90;;;4.60;;
1328;SDS011;658;48.820;9.354;2023-02-28T16:26:54;4.67;;;4.27;;
1328;SDS011;658;48.820;9.354;2023-02-28T16:30:56;4.60;;;4.20;;
1328;SDS011;658;48.820;9.354;2023-02-28T16:34:57;4.50;;;4.20;;
1328;SDS011;658;48.820;9.354;2023-02-28T16:38:58;4.23;;;3.93;;
1328;SDS011;658;48.820;9.354;2023-02-28T16:42:58;4.13;;;3.83;;
1328;SDS011;658;48.820;9.354;2023-02-28T16:47:00;4.20;;;3.90;;
1328;SDS011;658;48.820;9.354;2023-02-28T16:51:02;3.80;;;3.50;;
1328;SDS011;658;48.820;9.354;2023-02-28T16:55:04;3.80;;;3.50;;
1328;SDS011;658;48.820;9.354;2023-02-28T16:59:05;4.00;;;3.70;;
1328;SDS011;658;48.820;9.354;2023-02-28T17:03:08;3.33;;;3.13;;
1328;SDS011;658;48.820;9.354;2023-02-28T17:07:20;3.70;;;3.40;;
1328;SDS011;658;48.820;9.354;2023-02-28T17:11:21;3.50;;;3.20;;
1328;SDS011;658;48.820;9.354;2023-02-28T17:15:22;3.45;;;3.15;;
1328;SDS011;658;48.820;9.354;2023-02-28T17:19:23;3.03;;;2.83;;
1328;SDS011;658;48.820;9.354;2023-02-28T17:23:24;3.30;;;3.10;;
1328;SDS011;658;48.820;9.354;2023-02-28T17:27:25;2.77;;;2.57;;
1328;SDS011;658;48.820;9.354;2023-02-28T17:31:26;2.47;;;2.27;;
1328;SDS011;658;48.820;9.354;2023-02-28T17:35:27;3.10;;;2.87;;
1328;SDS011;658;48.820;9.354;2023-02-28T17:39:28;2.70;;;2.50;;
1328;SDS011;658;48.820;9.354;2023-02-28T17:43:30;2.80;;;2.60;;
1328;SDS011;658;48.820;9.354;2023-02-28T17:47:31;3.20;;;3.00;;
1328;SDS011;658;48.820;9.354;2023-02-28T17:51:32;2.90;;;2.60;;
1328;SDS011;658;48.820;9.354;2023-02-28T17:55:32;2.60;;;2.40;;
1328;SDS011;658;48.820;9.354;2023-02-28T17:59:34;2.60;;;2.23;;
1328;SDS011;658;48.820;9.354;2023-02-28T18:03:35;2.80;;;2.60;;
1328;SDS011;658;48.820;9.354;2023-02-28T18:07:39;2.57;;;2.37;;
1328;SDS011;658;48.820;9.354;2023-02-28T18:11:40;2.80;;;2.60;;
1328;SDS011;658;48.820;9.354;2023-02-28T18:15:44;2.60;;;2.40;;
1328;SDS011;658;48.820;9.354;2023-02-28T18:19:45;2.90;;;2.20;;
1328;SDS011;658;48.820;9.354;2023-02-28T18:23:46;2.53;;;2.33;;
1328;SDS011;658;48.820;9.354;2023-02-28T18:27:47;4.13;;;1.97;;
1328;SDS011;658;48.820;9.354;2023-02-28T18:31:57;2.50;;;2.30;;
1328;SDS011;658;48.820;9.354;2023-02-28T18:35:57;2.50;;;2.30;;
1328;SDS011;658;48.820;9.354;2023-02-28T18:39:58;2.87;;;2.67;;
1328;SDS011;658;48.820;9.354;2023-02-28T18:43:59;2.13;;;2.00;;
1328;SDS011;658;48.820;9.354;2023-02-28T18:48:01;2.57;;;2.37;;
1328;SDS011;658;48.820;9.354;2023-02-28T18:52:03;2.30;;;2.10;;
1328;SDS011;658;48.820;9.354;2023-02-28T18:56:05;2.40;;;2.20;;
1328;SDS011;658;48.820;9.354;2023-02-28T19:00:08;2.10;;;2.00;;
1328;SDS011;658;48.820;9.354;2023-02-28T19:04:10;3.57;;;2.17;;
1328;SDS011;658;48.820;9.354;2023-02-28T19:08:12;2.03;;;1.93;;
1328;SDS011;658;48.820;9.354;2023-02-28T19:12:13;2.30;;;2.10;;
1328;SDS011;658;48.820;9.354;2023-02-28T19:16:17;3.40;;;2.27;;
1328;SDS011;658;48.820;9.354;2023-02-28T19:20:19;2.40;;;2.20;;
1328;SDS011;658;48.820;9.354;2023-02-28T19:24:20;2.53;;;2.33;;
1328;SDS011;658;48.820;9.354;2023-02-28T19:28:21;2.43;;;2.00;;
1328;SDS011;658;48.820;9.354;2023-02-28T19:32:22;2.40;;;2.30;;
1328;SDS011;658;48.820;9.354;2023-02-28T19:36:25;2.30;;;2.20;;
1328;SDS011;658;48.820;9.354;2023-02-28T19:40:30;2.30;;;2.10;;
1328;SDS011;658;48.820;9.354;2023-02-28T19:44:35;3.07;;;2.33;;
1328;SDS011;658;48.820;9.354;2023-02-28T19:48:37;4.00;;;2.50;;
1328;SDS011;658;48.820;9.354;2023-02-28T19:52:38;2.40;;;2.20;;
1328;SDS011;658;48.820;9.354;2023-02-28T19:56:39;3.43;;;2.13;;
1328;SDS011;658;48.820;9.354;2023-02-28T20:00:40;2.30;;;2.10;;
1328;SDS011;658;48.820;9.354;2023-02-28T20:04:41;2.00;;;1.90;;
1328;SDS011;658;48.820;9.354;2023-02-28T20:08:42;2.50;;;2.30;;
1328;SDS011;658;48.820;9.354;2023-02-28T20:12:43;2.13;;;2.00;;
1328;SDS011;658;48.820;9.354;2023-02-28T20:16:43;2.30;;;2.20;;
1328;SDS011;658;48.820;9.354;2023-02-28T20:20:45;2.77;;;2.50;;
1328;SDS011;658;48.820;9.354;2023-02-28T20:24:46;2.33;;;2.13;;
1328;SDS011;658;48.820;9.354;2023-02-28T20:28:47;3.23;;;2.20;;
1328;SDS011;658;48.820;9.354;2023-02-28T20:32:48;2.67;;;2.50;;
1328;SDS011;658;48.820;9.354;2023-02-28T20:36:49;2.50;;;2.30;;
1328;SDS011;658;48.820;9.354;2023-02-28T20:40:52;2.30;;;2.20;;
1328;SDS011;658;48.820;9.354;2023-02-28T20:44:54;2.60;;;2.23;;
1328;SDS011;658;48.820;9.354;2023-02-28T20:48:55;3.20;;;1.87;;
1328;SDS011;658;48.820;9.354;2023-02-28T20:52:57;2.57;;;2.37;;
1328;SDS011;658;48.820;9.354;2023-02-28T20:56:57;2.60;;;2.40;;
1328;SDS011;658;48.820;9.354;2023-02-28T21:01:02;2.90;;;2.17;;
1328;SDS011;658;48.820;9.354;2023-02-28T21:05:04;3.60;;;2.57;;
1328;SDS011;658;48.820;9.354;2023-02-28T21:09:05;2.50;;;2.30;;
1328;SDS011;658;48.820;9.354;2023-02-28T21:13:07;2.77;;;2.53;;
1328;SDS011;658;48.820;9.354;2023-02-28T21:17:08;2.47;;;2.27;;
1328;SDS011;658;48.820;9.354;2023-02-28T21:21:10;2.80;;;2.43;;
1328;SDS011;658;48.820;9.354;2023-02-28T21:25:15;3.03;;;2.73;;
1328;SDS011;658;48.820;9.354;2023-02-28T21:29:16;2.47;;;2.27;;
1328;SDS011;658;48.820;9.354;2023-02-28T21:33:16;2.33;;;2.13;;
1328;SDS011;658;48.820;9.354;2023-02-28T21:37:18;2.43;;;2.23;;
1328;SDS011;658;48.820;9.354;2023-02-28T21:41:20;2.20;;;2.10;;
1328;SDS011;658;48.820;9.354;2023-02-28T21:45:23;2.60;;;2.40;;
1328;SDS011;658;48.820;9.354;2023-02-28T21:49:23;2.70;;;2.50;;
1328;SDS011;658;48.820;9.354;2023-02-28T21:53:24;3.97;;;3.20;;
1328;SDS011;658;48.820;9.354;2023-02-28T21:57:24;2.93;;;2.73;;
1328;SDS011;658;48.820;9.354;2023-02-28T22:01:34;3.13;;;2.40;;
1328;SDS011;658;48.820;9.354;2023-02-28T22:05:37;2.63;;;2.43;;
1328;SDS011;658;48.820;9.354;2023-02-28T22:09:37;2.93;;;2.67;;
1328;SDS011;658;48.820;9.354;2023-02-28T22:13:38;2.50;;;2.27;;
1328;SDS011;658;48.820;9.354;2023-02-28T22:17:39;5.17;;;2.70;;
1328;SDS011;658;48.820;9.354;2023-02-28T22:21:39;2.30;;;2.20;;
1328;SDS011;658;48.820;9.354;2023-02-28T22:25:40;2.73;;;2.53;;
1328;SDS011;658;48.820;9.354;2023-02-28T22:29:41;3.10;;;2.90;;
1328;SDS011;658;48.820;9.354;2023-02-28T22:33:42;3.07;;;2.73;;
1328;SDS011;658;48.820;9.354;2023-02-28T22:37:43;2.83;;;2.63;;
1328;SDS011;658;48.820;9.354;2023-02-28T22:41:46;2.53;;;2.33;;
1328;SDS011;658;48.820;9.354;2023-02-28T22:45:47;2.70;;;2.50;;
1328;SDS011;658;48.820;9.354;2023-02-28T22:49:47;2.87;;;2.70;;
1328;SDS011;658;48.820;9.354;2023-02-28T22:53:48;3.33;;;2.63;;
1328;SDS011;658;48.820;9.354;2023-02-28T22:57:50;2.90;;;2.70;;
1328;SDS011;658;48.820;9.354;2023-02-28T23:01:51;2.87;;;2.70;;
1328;SDS011;658;48.820;9.354;2023-02-28T23:05:51;3.13;;;2.93;;
1328;SDS011;658;48.820;9.354;2023-02-28T23:09:52;2.70;;;2.50;;
1328;SDS011;658;48.820;9.354;2023-02-28T23:13:53;2.87;;;2.63;;
1328;SDS011;658;48.820;9.354;2023-02-28T23:18:00;3.00;;;2.80;;
1328;SDS011;658;48.820;9.354;2023-02-28T23:22:01;2.60;;;2.40;;
1328;SDS011;658;48.820;9.354;2023-02-28T23:26:05;3.43;;;3.13;;
1328;SDS011;658;48.820;9.354;2023-02-28T23:30:07;2.93;;;2.73;;
1328;SDS011;658;48.820;9.354;2023-02-28T23:34:10;3.13;;;2.93;;
1328;SDS011;658;48.820;9.354;2023-02-28T23:38:11;2.90;;;2.70;;
1328;SDS011;658;48.820;9.354;2023-02-28T23:42:11;3.10;;;2.90;;
1328;SDS011;658;48.820;9.354;2023-02-28T23:46:13;2.83;;;2.63;;
1328;SDS011;658;48.820;9.354;2023-02-28T23:50:14;3.70;;;3.20;;
1328;SDS011;658;48.820;9.354;2023-02-28T23:54:15;3.20;;;2.90;;
1328;SDS011;658;48.820;9.354;2023-02-28T23:58:17;3.27;;;2.97;;
